Time;durP1;ratioP1;P1;durP2;ratioP2;P2;SDS_P1;SDS_P2;PMS_P1;PMS_P2;Temp;Humidity;BMP_temperature;BMP_pressure;BME280_temperature;BME280_humidity;BME280_pressure;Samples;Min_cycle;Max_cycle;Signal;HPM_P1;HPM_P2
2022/03/08 00:01:36;;;;;;;10.75;6.40;;;0.60;99.90;;;;;;5060503;28;20046;-76
2022/03/08 00:04:02;;;;;;;9.00;5.55;;;0.60;99.90;;;;;;5069795;28;20045;-75
2022/03/08 00:06:27;;;;;;;9.48;5.82;;;0.70;99.90;;;;;;5066975;28;20119;-75
2022/03/08 00:08:53;;;;;;;11.32;5.28;;;0.60;99.90;;;;;;5070291;28;20231;-76
2022/03/08 00:11:19;;;;;;;9.02;5.13;;;0.60;99.90;;;;;;5056637;28;20041;-75
2022/03/08 00:13:45;;;;;;;10.20;6.40;;;0.50;99.90;;;;;;5051815;28;20043;-76
2022/03/08 00:16:11;;;;;;;9.13;5.97;;;0.50;99.90;;;;;;5063537;28;20060;-75
2022/03/08 00:18:38;;;;;;;11.23;5.45;;;0.50;99.90;;;;;;5061272;28;20049;-76
2022/03/08 00:21:05;;;;;;;10.70;6.47;;;0.40;99.90;;;;;;5057340;28;21307;-75
2022/03/08 00:23:32;;;;;;;14.85;6.53;;;0.40;99.90;;;;;;5055603;28;20028;-75
2022/03/08 00:26:00;;;;;;;11.30;5.90;;;0.40;99.90;;;;;;5065468;28;20040;-76
2022/03/08 00:28:26;;;;;;;11.95;6.18;;;0.40;99.90;;;;;;5065860;28;20094;-74
2022/03/08 00:30:52;;;;;;;17.63;6.13;;;0.40;99.90;;;;;;5061124;28;20049;-75
2022/03/08 00:33:19;;;;;;;14.57;8.15;;;0.30;99.90;;;;;;5063321;28;20049;-76
2022/03/08 00:35:45;;;;;;;9.73;6.10;;;0.30;99.90;;;;;;5064904;28;20044;-75
2022/03/08 00:38:11;;;;;;;8.27;6.03;;;0.40;99.90;;;;;;5060916;28;20449;-76
2022/03/08 00:40:36;;;;;;;11.88;6.78;;;0.30;99.90;;;;;;5064246;28;20075;-77
2022/03/08 00:43:02;;;;;;;10.93;7.38;;;0.30;99.90;;;;;;5063291;28;20140;-78
2022/03/08 00:45:28;;;;;;;11.32;6.45;;;0.30;99.90;;;;;;5058438;28;20102;-77
2022/03/08 00:47:54;;;;;;;10.35;6.20;;;0.20;99.90;;;;;;5064620;28;20040;-76
2022/03/08 00:50:22;;;;;;;10.27;5.65;;;0.20;99.90;;;;;;5067685;28;20041;-76
2022/03/08 00:52:49;;;;;;;7.40;5.88;;;0.20;99.90;;;;;;5081418;28;20069;-75
2022/03/08 00:55:18;;;;;;;10.80;6.03;;;0.30;99.90;;;;;;5067317;28;20095;-76
2022/03/08 00:57:45;;;;;;;9.20;5.72;;;0.20;99.90;;;;;;5066469;28;20105;-76
2022/03/08 01:00:13;;;;;;;10.27;6.53;;;0.20;99.90;;;;;;5062152;28;20052;-76
2022/03/08 01:02:39;;;;;;;12.07;6.45;;;0.20;99.90;;;;;;5066942;28;20044;-76
2022/03/08 01:05:05;;;;;;;7.68;5.18;;;0.20;99.90;;;;;;5066630;28;20044;-75
2022/03/08 01:07:31;;;;;;;9.93;7.03;;;0.20;99.90;;;;;;5063396;28;20041;-76
2022/03/08 01:09:57;;;;;;;10.23;5.80;;;0.20;99.90;;;;;;5069766;28;20445;-76
2022/03/08 01:12:23;;;;;;;8.95;6.50;;;0.20;99.90;;;;;;5064434;28;20048;-76
2022/03/08 01:14:49;;;;;;;12.38;6.60;;;0.20;99.90;;;;;;5066251;28;20040;-76
2022/03/08 01:17:14;;;;;;;9.90;7.25;;;0.20;99.90;;;;;;5065204;28;20105;-76
2022/03/08 01:19:40;;;;;;;9.75;6.57;;;0.30;99.90;;;;;;5063309;28;20045;-76
2022/03/08 01:22:06;;;;;;;10.45;5.28;;;0.30;99.90;;;;;;5058834;28;20045;-75
2022/03/08 01:24:31;;;;;;;10.68;5.95;;;0.30;99.90;;;;;;5052802;28;20037;-75
2022/03/08 01:26:57;;;;;;;10.02;6.32;;;0.30;99.90;;;;;;5058040;28;20036;-76
2022/03/08 01:29:23;;;;;;;10.38;6.30;;;0.30;99.90;;;;;;5056226;28;20037;-74
2022/03/08 01:31:49;;;;;;;10.15;5.70;;;0.30;99.90;;;;;;5055763;28;20040;-74
2022/03/08 01:34:15;;;;;;;9.68;5.40;;;0.30;99.90;;;;;;5065491;28;20144;-75
2022/03/08 01:36:41;;;;;;;11.05;6.45;;;0.30;99.90;;;;;;5060416;28;20598;-75
2022/03/08 01:39:07;;;;;;;13.05;5.97;;;0.20;99.90;;;;;;5056612;28;20036;-75
2022/03/08 01:41:32;;;;;;;15.05;6.38;;;0.20;99.90;;;;;;5062950;28;20066;-75
2022/03/08 01:43:58;;;;;;;13.63;6.63;;;0.20;99.90;;;;;;5061589;28;20040;-76
2022/03/08 01:46:24;;;;;;;11.55;6.97;;;0.30;99.90;;;;;;5058102;28;20458;-76
2022/03/08 01:48:50;;;;;;;11.02;6.95;;;0.10;99.90;;;;;;5058587;28;20064;-76
2022/03/08 01:51:16;;;;;;;11.27;8.32;;;0.10;99.90;;;;;;5056612;28;20135;-76
2022/03/08 01:53:42;;;;;;;10.50;6.30;;;0.10;99.90;;;;;;5057489;28;20040;-76
2022/03/08 01:56:09;;;;;;;14.30;7.05;;;0.10;99.90;;;;;;5062502;28;20059;-75
2022/03/08 01:58:36;;;;;;;14.25;6.63;;;0.10;99.90;;;;;;5059530;28;20518;-77
2022/03/08 02:01:02;;;;;;;11.73;7.45;;;0.20;99.90;;;;;;5061979;28;20140;-75
2022/03/08 02:03:28;;;;;;;17.77;8.07;;;0.10;99.90;;;;;;5067916;28;20051;-74
2022/03/08 02:05:53;;;;;;;14.68;7.90;;;0.10;99.90;;;;;;5066393;28;20049;-74
2022/03/08 02:08:19;;;;;;;14.63;7.38;;;0.10;99.90;;;;;;5061270;28;20043;-75
2022/03/08 02:10:45;;;;;;;9.35;6.90;;;0.10;99.90;;;;;;5051737;28;20335;-75
2022/03/08 02:13:10;;;;;;;14.23;7.30;;;0.10;99.90;;;;;;5042509;28;20059;-75
2022/03/08 02:15:36;;;;;;;10.32;7.20;;;0.10;99.90;;;;;;5063882;28;20067;-74
2022/03/08 02:18:02;;;;;;;9.55;6.28;;;0.00;99.90;;;;;;5057928;28;20045;-74
2022/03/08 02:20:29;;;;;;;10.13;7.10;;;0.00;99.90;;;;;;5066528;28;20072;-74
2022/03/08 02:22:55;;;;;;;12.90;7.45;;;0.10;99.90;;;;;;5056743;28;20045;-75
2022/03/08 02:25:21;;;;;;;16.77;6.78;;;0.00;99.90;;;;;;5053731;28;20794;-74
2022/03/08 02:27:50;;;;;;;9.90;6.72;;;0.00;99.90;;;;;;5063510;28;20128;-75
2022/03/08 02:30:17;;;;;;;16.73;9.05;;;-0.10;99.90;;;;;;5065025;28;20037;-75
2022/03/08 02:32:44;;;;;;;13.18;7.18;;;-0.10;99.90;;;;;;5065715;28;20064;-75
2022/03/08 02:35:15;;;;;;;18.67;7.85;;;-0.10;99.90;;;;;;5068621;28;20048;-75
2022/03/08 02:37:50;;;;;;;12.38;7.97;;;-0.20;99.90;;;;;;5063091;28;20045;-75
2022/03/08 02:40:18;;;;;;;10.43;6.47;;;-0.20;99.90;;;;;;5055711;28;20056;-75
2022/03/08 02:42:44;;;;;;;13.50;7.68;;;-0.20;99.90;;;;;;5063875;28;20093;-75
2022/03/08 02:45:11;;;;;;;12.02;7.65;;;-0.30;99.90;;;;;;5064820;28;20513;-75
2022/03/08 02:47:37;;;;;;;17.85;8.95;;;-0.20;99.90;;;;;;5059585;28;20044;-74
2022/03/08 02:50:06;;;;;;;11.25;7.57;;;-0.30;99.90;;;;;;5066801;28;20497;-75
2022/03/08 02:52:33;;;;;;;17.00;8.17;;;-0.20;99.90;;;;;;5059416;28;20487;-74
2022/03/08 02:54:58;;;;;;;13.85;8.18;;;-0.20;99.90;;;;;;5068009;28;20646;-74
2022/03/08 02:57:24;;;;;;;12.43;7.38;;;-0.20;99.90;;;;;;5059090;28;20174;-74
2022/03/08 02:59:50;;;;;;;13.88;7.60;;;-0.20;99.90;;;;;;5063165;28;20047;-74
2022/03/08 03:02:15;;;;;;;11.65;7.65;;;-0.30;99.90;;;;;;5063567;28;20125;-76
2022/03/08 03:04:42;;;;;;;13.70;7.70;;;-0.30;99.90;;;;;;5060510;28;20037;-76
2022/03/08 03:07:07;;;;;;;14.07;8.20;;;-0.30;99.90;;;;;;5069663;28;20048;-75
2022/03/08 03:09:33;;;;;;;11.73;7.57;;;-0.30;99.90;;;;;;5063080;28;20044;-75
2022/03/08 03:11:59;;;;;;;11.50;7.60;;;-0.40;99.90;;;;;;5061956;28;20102;-75
2022/03/08 03:14:24;;;;;;;14.45;7.78;;;-0.30;99.90;;;;;;5064490;28;20502;-74
2022/03/08 03:16:50;;;;;;;15.65;8.50;;;-0.30;99.90;;;;;;5060765;28;20546;-74
2022/03/08 03:19:16;;;;;;;16.10;8.35;;;-0.40;99.90;;;;;;5061742;28;20040;-75
2022/03/08 03:21:41;;;;;;;22.15;7.70;;;-0.40;99.90;;;;;;5058620;28;20435;-76
2022/03/08 03:24:07;;;;;;;14.23;9.63;;;-0.40;99.90;;;;;;5048099;28;20494;-74
2022/03/08 03:26:32;;;;;;;15.18;8.93;;;-0.40;99.90;;;;;;5059023;28;20064;-74
2022/03/08 03:28:58;;;;;;;16.13;9.30;;;-0.40;99.90;;;;;;5058742;28;20390;-75
2022/03/08 03:31:23;;;;;;;14.98;9.48;;;-0.40;99.90;;;;;;5060359;28;20103;-75
2022/03/08 03:33:49;;;;;;;15.23;9.50;;;-0.40;99.90;;;;;;5070110;28;20120;-74
2022/03/08 03:36:15;;;;;;;12.57;8.23;;;-0.50;99.90;;;;;;5066377;28;20052;-74
2022/03/08 03:38:40;;;;;;;15.32;8.27;;;-0.50;99.90;;;;;;5069296;28;20047;-75
2022/03/08 03:41:06;;;;;;;13.02;8.45;;;-0.60;99.90;;;;;;5061214;28;20037;-75
2022/03/08 03:43:31;;;;;;;17.17;9.48;;;-0.60;99.90;;;;;;5065772;28;20055;-74
2022/03/08 03:45:57;;;;;;;16.73;10.35;;;-0.40;99.90;;;;;;5060020;28;20055;-74
2022/03/08 03:48:23;;;;;;;14.07;9.88;;;-0.40;99.90;;;;;;5068191;28;20669;-74
2022/03/08 03:50:48;;;;;;;17.70;8.50;;;-0.40;99.90;;;;;;5070448;28;20067;-75
2022/03/08 03:53:14;;;;;;;15.00;9.93;;;-0.40;99.90;;;;;;5066209;28;20055;-74
2022/03/08 03:55:40;;;;;;;17.35;11.93;;;-0.50;99.90;;;;;;5066539;28;20044;-74
2022/03/08 03:58:05;;;;;;;14.80;9.07;;;-0.50;99.90;;;;;;5047298;28;20040;-74
2022/03/08 04:00:31;;;;;;;20.55;10.75;;;-0.50;99.90;;;;;;5062311;28;20060;-74
2022/03/08 04:02:56;;;;;;;15.88;10.30;;;-0.50;99.90;;;;;;5067023;28;20040;-74
2022/03/08 04:05:22;;;;;;;13.98;10.15;;;-0.50;99.90;;;;;;5065072;28;20428;-74
2022/03/08 04:07:48;;;;;;;20.13;11.40;;;-0.50;99.90;;;;;;5063883;28;20033;-74
2022/03/08 04:10:15;;;;;;;16.23;9.95;;;-0.50;99.90;;;;;;5067496;28;20044;-76
2022/03/08 04:12:41;;;;;;;19.50;11.65;;;-0.50;99.90;;;;;;5064995;28;20127;-74
2022/03/08 04:15:08;;;;;;;17.25;10.35;;;-0.50;99.90;;;;;;5064407;28;20047;-74
2022/03/08 04:17:34;;;;;;;21.02;12.68;;;-0.50;99.90;;;;;;5059160;28;20052;-74
2022/03/08 04:20:00;;;;;;;19.00;12.00;;;-0.40;99.90;;;;;;5059376;28;20066;-76
2022/03/08 04:22:26;;;;;;;17.05;11.55;;;-0.40;99.90;;;;;;5068469;28;20483;-75
2022/03/08 04:24:51;;;;;;;17.77;11.77;;;-0.40;99.90;;;;;;5049638;28;20059;-75
2022/03/08 04:27:17;;;;;;;17.98;10.57;;;-0.20;99.90;;;;;;5065978;28;20037;-75
2022/03/08 04:29:42;;;;;;;17.35;11.35;;;-0.20;99.90;;;;;;5070020;28;20040;-75
2022/03/08 04:32:08;;;;;;;22.83;14.32;;;-0.20;99.90;;;;;;5061081;28;20059;-75
2022/03/08 04:34:34;;;;;;;19.23;12.07;;;-0.20;99.90;;;;;;5071137;28;20090;-78
2022/03/08 04:36:59;;;;;;;18.75;12.30;;;-0.10;99.90;;;;;;5061329;28;20473;-75
2022/03/08 04:39:25;;;;;;;18.58;10.38;;;-0.10;99.90;;;;;;5055349;28;20063;-77
2022/03/08 04:41:51;;;;;;;17.25;12.27;;;0.00;99.90;;;;;;5069397;28;20060;-74
2022/03/08 04:44:16;;;;;;;19.17;12.95;;;0.00;99.90;;;;;;5066299;28;20098;-74
2022/03/08 04:46:42;;;;;;;17.95;12.50;;;0.00;99.90;;;;;;5066706;28;20052;-74
2022/03/08 04:49:08;;;;;;;20.75;11.55;;;0.00;99.90;;;;;;5066538;28;20052;-74
2022/03/08 04:51:33;;;;;;;18.17;11.93;;;0.00;99.90;;;;;;5065837;28;20041;-76
2022/03/08 04:53:59;;;;;;;22.35;11.65;;;-0.10;99.90;;;;;;5065523;28;20041;-76
2022/03/08 04:56:24;;;;;;;17.80;12.90;;;-0.10;99.90;;;;;;5062404;28;20041;-75
2022/03/08 04:58:52;;;;;;;15.82;11.00;;;-0.20;99.90;;;;;;5055033;28;20469;-75
2022/03/08 05:01:18;;;;;;;24.50;12.00;;;-0.20;99.90;;;;;;5064939;28;20116;-75
2022/03/08 05:03:43;;;;;;;22.13;13.55;;;-0.10;99.90;;;;;;5064976;28;20150;-74
2022/03/08 05:06:09;;;;;;;21.02;12.38;;;-0.10;99.90;;;;;;5056569;28;20041;-74
2022/03/08 05:08:34;;;;;;;21.23;12.05;;;-0.10;99.90;;;;;;5057345;28;21011;-74
2022/03/08 05:11:02;;;;;;;17.45;11.48;;;0.00;99.90;;;;;;5067487;28;20075;-75
2022/03/08 05:13:29;;;;;;;21.73;12.27;;;0.00;99.90;;;;;;5068213;28;20111;-74
2022/03/08 05:15:55;;;;;;;20.75;14.23;;;-0.10;99.90;;;;;;5063457;28;20076;-75
2022/03/08 05:18:20;;;;;;;20.85;12.18;;;-0.10;99.90;;;;;;5065649;28;20068;-74
2022/03/08 05:20:46;;;;;;;18.88;12.18;;;-0.20;99.90;;;;;;5063818;28;20055;-74
2022/03/08 05:23:12;;;;;;;17.45;12.98;;;-0.20;99.90;;;;;;5068125;28;20036;-74
2022/03/08 05:25:38;;;;;;;26.17;13.55;;;-0.20;99.90;;;;;;5066428;28;20079;-75
2022/03/08 05:28:04;;;;;;;24.92;13.52;;;-0.20;99.90;;;;;;5065838;28;20064;-74
2022/03/08 05:30:30;;;;;;;23.52;12.98;;;-0.20;99.90;;;;;;5068894;28;20048;-75
2022/03/08 05:32:55;;;;;;;22.88;13.98;;;-0.10;99.90;;;;;;5061168;28;20049;-75
2022/03/08 05:35:21;;;;;;;18.67;13.27;;;-0.20;99.90;;;;;;5061465;28;20158;-76
2022/03/08 05:37:47;;;;;;;18.15;12.48;;;-0.30;99.90;;;;;;5066848;28;20406;-75
2022/03/08 05:40:12;;;;;;;20.17;13.30;;;-0.30;99.90;;;;;;5059870;28;20053;-75
2022/03/08 05:42:38;;;;;;;20.50;12.20;;;-0.30;99.90;;;;;;5063337;28;20115;-75
2022/03/08 05:45:09;;;;;;;18.08;12.18;;;-0.30;99.90;;;;;;5057923;28;20048;-75
2022/03/08 05:47:36;;;;;;;18.10;12.63;;;-0.30;99.90;;;;;;5057552;28;20059;-78
2022/03/08 05:50:02;;;;;;;23.65;14.30;;;-0.20;99.90;;;;;;5069947;28;20182;-77
2022/03/08 05:52:27;;;;;;;21.55;13.38;;;-0.20;99.90;;;;;;5061551;28;20043;-75
2022/03/08 05:54:53;;;;;;;18.02;11.65;;;-0.20;99.90;;;;;;5065323;28;20050;-75
2022/03/08 05:57:18;;;;;;;19.25;12.63;;;-0.20;99.90;;;;;;5061444;28;20050;-75
2022/03/08 05:59:44;;;;;;;19.75;12.75;;;-0.20;99.90;;;;;;5043404;28;20079;-74
2022/03/08 06:02:11;;;;;;;26.02;13.05;;;-0.20;99.90;;;;;;5066703;28;20047;-75
2022/03/08 06:04:37;;;;;;;18.73;11.23;;;-0.30;99.90;;;;;;5064972;28;20445;-74
2022/03/08 06:07:02;;;;;;;23.30;14.75;;;-0.30;99.90;;;;;;5066446;28;20078;-78
2022/03/08 06:09:28;;;;;;;20.20;14.10;;;-0.30;99.90;;;;;;5067447;28;20086;-74
2022/03/08 06:11:54;;;;;;;20.42;12.50;;;-0.20;99.90;;;;;;5067035;28;20048;-75
2022/03/08 06:14:20;;;;;;;20.55;13.70;;;-0.20;99.90;;;;;;5069816;28;20051;-75
2022/03/08 06:16:45;;;;;;;17.83;12.57;;;-0.20;99.90;;;;;;5061040;28;20048;-75
2022/03/08 06:19:11;;;;;;;21.88;12.88;;;-0.10;99.90;;;;;;5059624;28;20081;-75
2022/03/08 06:21:37;;;;;;;20.17;11.77;;;-0.10;99.90;;;;;;5051950;28;20040;-75
2022/03/08 06:24:03;;;;;;;21.02;12.85;;;-0.10;99.90;;;;;;5064724;28;20044;-75
2022/03/08 06:26:28;;;;;;;20.08;13.13;;;-0.10;99.90;;;;;;5065122;28;20525;-75
2022/03/08 06:28:54;;;;;;;19.27;11.70;;;0.00;99.90;;;;;;5053176;28;20041;-75
2022/03/08 06:31:20;;;;;;;18.73;12.15;;;0.00;99.90;;;;;;5063440;28;20044;-75
2022/03/08 06:33:45;;;;;;;20.38;13.45;;;0.00;99.90;;;;;;5069472;28;20040;-76
2022/03/08 06:36:11;;;;;;;18.17;13.65;;;0.10;99.90;;;;;;5065793;28;20054;-75
2022/03/08 06:38:37;;;;;;;19.20;11.50;;;0.10;99.90;;;;;;5067421;28;20394;-75
2022/03/08 06:41:02;;;;;;;19.35;12.45;;;0.20;99.90;;;;;;5066584;28;20131;-75
2022/03/08 06:43:28;;;;;;;20.00;11.77;;;0.20;99.90;;;;;;5066189;28;20037;-75
2022/03/08 06:45:53;;;;;;;21.75;12.38;;;0.20;99.90;;;;;;5041341;28;20048;-75
2022/03/08 06:48:19;;;;;;;21.67;11.98;;;0.20;99.90;;;;;;5067723;28;20052;-74
2022/03/08 06:50:44;;;;;;;17.90;11.98;;;0.30;99.90;;;;;;5051498;28;20638;-75
2022/03/08 06:53:10;;;;;;;16.00;10.38;;;0.30;99.90;;;;;;5064949;28;20471;-75
2022/03/08 06:55:36;;;;;;;16.35;12.30;;;0.30;99.90;;;;;;5066489;28;20049;-74
2022/03/08 06:58:03;;;;;;;16.90;11.05;;;0.40;99.90;;;;;;5066465;28;20479;-74
2022/03/08 07:00:29;;;;;;;16.42;11.70;;;0.50;99.90;;;;;;5064057;28;20075;-73
2022/03/08 07:02:55;;;;;;;15.45;10.90;;;0.50;99.90;;;;;;5049774;28;20037;-75
2022/03/08 07:05:20;;;;;;;16.10;10.38;;;0.70;99.90;;;;;;5049570;28;20488;-74
2022/03/08 07:07:46;;;;;;;15.30;10.23;;;0.70;99.90;;;;;;5054603;28;20053;-74
2022/03/08 07:10:12;;;;;;;13.57;9.90;;;0.80;99.90;;;;;;5069622;28;20127;-73
2022/03/08 07:12:37;;;;;;;14.38;10.13;;;0.90;99.90;;;;;;5066778;28;20118;-74
2022/03/08 07:15:03;;;;;;;16.63;10.63;;;0.90;99.90;;;;;;5070840;28;20076;-74
2022/03/08 07:17:29;;;;;;;13.32;8.45;;;1.00;99.90;;;;;;5066981;28;20037;-75
2022/03/08 07:19:55;;;;;;;15.95;10.23;;;1.10;99.90;;;;;;5058306;28;20037;-74
2022/03/08 07:22:20;;;;;;;13.52;8.68;;;1.20;99.90;;;;;;5066364;28;20128;-73
2022/03/08 07:24:46;;;;;;;16.85;9.02;;;1.20;99.90;;;;;;5063309;28;20044;-75
2022/03/08 07:27:12;;;;;;;13.48;8.43;;;1.30;99.90;;;;;;5058855;28;20406;-76
2022/03/08 07:29:37;;;;;;;14.27;9.23;;;1.40;99.90;;;;;;5072733;28;20103;-75
2022/03/08 07:32:03;;;;;;;15.07;10.05;;;1.40;99.90;;;;;;5066424;28;20051;-76
2022/03/08 07:34:29;;;;;;;17.23;10.75;;;1.60;99.90;;;;;;5070048;28;20131;-75
2022/03/08 07:36:55;;;;;;;13.48;9.57;;;1.60;99.90;;;;;;5067015;28;20127;-75
2022/03/08 07:39:20;;;;;;;21.48;11.98;;;1.70;99.90;;;;;;5055535;28;20493;-75
2022/03/08 07:41:46;;;;;;;13.90;9.93;;;1.80;99.90;;;;;;5065280;28;20052;-75
2022/03/08 07:44:12;;;;;;;38.95;11.55;;;1.90;99.90;;;;;;5069398;28;20400;-76
2022/03/08 07:46:37;;;;;;;13.35;9.02;;;1.90;99.90;;;;;;5065961;28;20506;-76
2022/03/08 07:49:03;;;;;;;15.07;9.63;;;2.10;99.90;;;;;;5068754;28;20398;-77
2022/03/08 07:51:28;;;;;;;15.45;8.93;;;2.10;99.90;;;;;;5072051;28;20532;-75
2022/03/08 07:53:54;;;;;;;12.65;8.48;;;2.20;99.90;;;;;;5069300;28;20087;-76
2022/03/08 07:56:20;;;;;;;15.52;9.45;;;2.30;99.90;;;;;;5055329;28;20033;-76
2022/03/08 07:58:46;;;;;;;17.63;8.70;;;2.40;99.90;;;;;;5062417;28;20418;-76
2022/03/08 08:01:13;;;;;;;14.32;8.60;;;2.50;99.90;;;;;;5063784;28;20507;-74
2022/03/08 08:03:38;;;;;;;13.30;7.97;;;2.60;99.90;;;;;;5071412;28;20063;-74
2022/03/08 08:06:04;;;;;;;12.98;7.78;;;2.60;99.90;;;;;;5065778;28;20402;-74
2022/03/08 08:08:30;;;;;;;12.82;9.00;;;2.70;99.90;;;;;;5071298;28;20091;-74
2022/03/08 08:10:55;;;;;;;13.23;9.18;;;2.80;99.90;;;;;;5071572;28;20114;-74
2022/03/08 08:13:21;;;;;;;15.48;9.23;;;2.90;99.90;;;;;;5063422;28;20044;-74
2022/03/08 08:15:47;;;;;;;10.98;8.13;;;3.00;99.90;;;;;;5061852;28;20040;-75
2022/03/08 08:18:13;;;;;;;15.10;9.98;;;3.00;99.90;;;;;;5057363;28;20079;-75
2022/03/08 08:20:38;;;;;;;13.70;8.45;;;3.10;99.90;;;;;;5067372;28;20080;-75
2022/03/08 08:23:04;;;;;;;18.58;10.13;;;3.20;99.90;;;;;;5070973;28;20033;-75
2022/03/08 08:25:30;;;;;;;11.43;9.02;;;3.20;99.90;;;;;;5066631;28;20040;-75
2022/03/08 08:27:55;;;;;;;9.48;7.80;;;3.30;99.90;;;;;;5067823;28;20036;-74
2022/03/08 08:30:21;;;;;;;14.93;9.50;;;3.40;99.90;;;;;;5053655;28;20045;-75
2022/03/08 08:32:50;;;;;;;13.60;8.57;;;3.40;99.90;;;;;;5070108;28;20040;-75
2022/03/08 08:35:16;;;;;;;9.20;8.05;;;3.50;99.90;;;;;;5068542;28;20040;-74
2022/03/08 08:37:42;;;;;;;13.55;8.70;;;3.50;99.90;;;;;;5071062;28;20036;-75
2022/03/08 08:40:08;;;;;;;14.40;8.40;;;3.60;99.90;;;;;;5070624;28;20093;-76
2022/03/08 08:42:34;;;;;;;13.15;8.60;;;3.70;99.90;;;;;;5067830;28;20033;-74
2022/03/08 08:44:59;;;;;;;15.60;8.80;;;3.80;99.90;;;;;;5063891;28;20463;-74
2022/03/08 08:47:26;;;;;;;10.85;8.90;;;3.80;99.90;;;;;;5067468;28;20045;-78
2022/03/08 08:49:51;;;;;;;12.75;9.52;;;4.00;99.90;;;;;;5066059;28;20091;-75
2022/03/08 08:52:17;;;;;;;11.48;8.30;;;4.00;99.90;;;;;;5062133;28;20069;-80
2022/03/08 08:54:42;;;;;;;14.15;9.68;;;4.00;99.90;;;;;;5064522;28;20519;-80
2022/03/08 08:57:08;;;;;;;11.35;8.27;;;4.20;99.90;;;;;;5072111;28;20052;-80
2022/03/08 08:59:34;;;;;;;13.10;8.82;;;4.30;99.90;;;;;;5070639;28;20548;-80
2022/03/08 09:01:59;;;;;;;10.50;7.75;;;4.30;99.90;;;;;;5063607;28;20102;-80
2022/03/08 09:04:25;;;;;;;10.55;9.10;;;4.60;99.90;;;;;;5073158;28;20070;-80
2022/03/08 09:06:50;;;;;;;9.70;7.20;;;4.70;99.90;;;;;;5068526;28;20639;-79
2022/03/08 09:09:16;;;;;;;9.77;8.23;;;4.90;99.90;;;;;;5070690;28;20044;-79
2022/03/08 09:11:42;;;;;;;11.60;7.53;;;4.90;99.90;;;;;;5067450;28;20141;-79
2022/03/08 09:14:09;;;;;;;9.60;7.38;;;5.00;99.90;;;;;;5063580;28;20063;-81
2022/03/08 09:16:34;;;;;;;9.90;8.45;;;4.90;99.90;;;;;;5058881;28;20581;-80
2022/03/08 09:19:00;;;;;;;10.63;7.80;;;5.10;99.90;;;;;;5060191;28;20120;-81
2022/03/08 09:21:26;;;;;;;10.63;7.07;;;5.20;99.90;;;;;;5063299;28;20061;-79
2022/03/08 09:23:52;;;;;;;8.75;6.97;;;5.20;99.90;;;;;;5068156;28;20098;-81
2022/03/08 09:26:17;;;;;;;8.90;7.00;;;5.30;99.90;;;;;;5060302;28;20071;-82
2022/03/08 09:28:43;;;;;;;11.05;6.45;;;5.40;99.90;;;;;;5058897;28;20786;-81
2022/03/08 09:31:09;;;;;;;9.57;5.93;;;5.60;99.90;;;;;;5070145;28;20098;-81
2022/03/08 09:33:34;;;;;;;11.60;7.75;;;5.70;99.90;;;;;;5070724;28;20044;-80
2022/03/08 09:36:00;;;;;;;12.82;6.38;;;5.70;99.90;;;;;;5067996;28;20060;-80
2022/03/08 09:38:26;;;;;;;11.75;6.47;;;5.70;99.90;;;;;;5050923;28;20135;-74
2022/03/08 09:40:52;;;;;;;11.15;7.32;;;5.90;99.90;;;;;;5064225;28;20075;-79
2022/03/08 09:43:18;;;;;;;13.18;7.65;;;6.00;99.90;;;;;;5067194;28;20443;-81
2022/03/08 09:45:44;;;;;;;8.25;6.03;;;6.00;99.90;;;;;;5064962;28;20107;-77
2022/03/08 09:48:10;;;;;;;8.82;6.00;;;6.20;99.90;;;;;;5058501;28;20040;-78
2022/03/08 09:50:36;;;;;;;7.43;5.75;;;6.20;99.90;;;;;;5069215;28;20152;-76
2022/03/08 09:53:03;;;;;;;7.68;6.47;;;6.30;99.90;;;;;;5067339;28;20410;-78
2022/03/08 09:55:28;;;;;;;8.40;5.82;;;6.20;99.90;;;;;;5056859;28;20045;-76
2022/03/08 09:57:55;;;;;;;6.32;5.72;;;6.20;99.90;;;;;;5060103;28;20040;-76
2022/03/08 10:00:23;;;;;;;8.10;6.22;;;6.10;99.90;;;;;;5061654;28;20029;-75
2022/03/08 10:02:51;;;;;;;7.90;5.93;;;6.30;99.90;;;;;;5064623;28;20525;-76
2022/03/08 10:05:22;;;;;;;7.88;5.38;;;6.40;99.90;;;;;;5056492;28;20079;-77
2022/03/08 10:08:19;;;;;;;7.57;5.40;;;6.50;99.90;;;;;;5061477;28;20105;-76
2022/03/08 10:10:47;;;;;;;7.40;6.20;;;6.60;99.90;;;;;;5053227;28;20383;-77
2022/03/08 10:13:13;;;;;;;9.25;5.00;;;6.70;99.90;;;;;;5060480;28;20089;-76
2022/03/08 10:15:39;;;;;;;6.50;5.70;;;6.60;99.90;;;;;;5061293;28;20050;-77
2022/03/08 10:18:05;;;;;;;9.55;6.00;;;6.70;99.90;;;;;;5059166;28;20154;-77
2022/03/08 10:20:33;;;;;;;7.05;5.38;;;6.70;99.90;;;;;;5070358;28;20048;-85
2022/03/08 10:23:02;;;;;;;6.57;5.28;;;6.90;99.90;;;;;;5055342;28;20052;-82
2022/03/08 10:25:30;;;;;;;7.22;5.63;;;6.90;99.90;;;;;;5062120;28;20111;-79
2022/03/08 10:27:56;;;;;;;7.47;5.80;;;6.90;99.90;;;;;;5064606;28;20044;-76
2022/03/08 10:30:27;;;;;;;7.07;5.85;;;7.00;99.90;;;;;;5068096;28;20047;-78
2022/03/08 10:32:59;;;;;;;8.25;6.15;;;7.00;99.90;;;;;;5063339;28;20041;-77
2022/03/08 10:35:29;;;;;;;8.80;6.15;;;7.00;99.90;;;;;;5068507;28;20044;-76
2022/03/08 10:38:05;;;;;;;7.20;5.32;;;7.20;99.90;;;;;;5057882;28;20045;-76
2022/03/08 10:40:32;;;;;;;8.20;5.35;;;7.30;99.90;;;;;;5050478;28;20045;-77
2022/03/08 10:43:06;;;;;;;8.32;6.13;;;7.50;99.90;;;;;;5068199;28;20045;-76
2022/03/08 10:45:33;;;;;;;6.28;4.70;;;7.40;99.90;;;;;;5071898;28;20048;-80
2022/03/08 10:47:59;;;;;;;12.43;6.63;;;7.60;99.90;;;;;;5064042;28;20044;-77
2022/03/08 10:50:34;;;;;;;7.68;5.75;;;7.70;99.90;;;;;;5065460;28;20045;-78
2022/03/08 10:53:01;;;;;;;7.05;6.03;;;7.40;99.90;;;;;;5062293;28;20043;-78
2022/03/08 10:55:29;;;;;;;5.60;4.90;;;7.70;99.90;;;;;;5060123;28;20508;-76
2022/03/08 10:58:00;;;;;;;6.95;5.93;;;7.70;99.90;;;;;;5069229;28;20049;-78
2022/03/08 11:00:53;;;;;;;7.60;5.28;;;7.80;99.90;;;;;;5066004;28;20048;-76
2022/03/08 11:03:21;;;;;;;6.20;4.88;;;7.90;99.90;;;;;;5035480;28;20110;-78
2022/03/08 11:06:04;;;;;;;6.88;4.93;;;7.80;99.90;;;;;;5060708;28;20474;-79
2022/03/08 11:08:30;;;;;;;8.00;4.53;;;7.80;99.90;;;;;;5071061;28;20052;-77
2022/03/08 11:10:56;;;;;;;5.65;4.70;;;7.90;99.90;;;;;;5069948;28;20041;-76
2022/03/08 11:13:21;;;;;;;7.57;5.82;;;7.90;99.90;;;;;;5070918;28;20037;-78
2022/03/08 11:15:47;;;;;;;7.40;5.15;;;8.00;99.90;;;;;;5063654;28;20048;-76
2022/03/08 11:18:14;;;;;;;6.95;5.18;;;8.10;99.90;;;;;;5067618;28;20044;-78
2022/03/08 11:20:42;;;;;;;8.25;5.55;;;8.00;99.90;;;;;;5067834;28;20045;-78
2022/03/08 11:23:09;;;;;;;9.90;5.82;;;7.90;99.90;;;;;;5056976;28;20490;-78
2022/03/08 11:25:44;;;;;;;12.27;5.97;;;7.90;99.90;;;;;;5059053;28;20044;-79
2022/03/08 11:28:09;;;;;;;5.32;4.18;;;7.90;99.90;;;;;;5056365;28;20037;-77
2022/03/08 11:30:40;;;;;;;8.57;5.18;;;8.20;99.90;;;;;;5060564;28;20098;-76
2022/03/08 11:33:14;;;;;;;7.00;5.28;;;8.20;99.90;;;;;;5070253;28;20040;-78
2022/03/08 11:36:10;;;;;;;6.72;5.03;;;8.30;99.90;;;;;;5066911;28;20379;-80
2022/03/08 11:38:36;;;;;;;5.30;4.70;;;8.10;99.90;;;;;;5069183;28;20049;-76
2022/03/08 11:41:02;;;;;;;5.13;4.22;;;8.10;99.90;;;;;;5056061;28;20051;-79
2022/03/08 11:43:43;;;;;;;4.40;3.80;;;8.30;99.90;;;;;;5062925;28;20041;-78
2022/03/08 11:46:11;;;;;;;6.68;5.03;;;8.30;99.90;;;;;;5065472;28;20082;-79
2022/03/08 11:49:07;;;;;;;5.65;5.13;;;8.30;99.90;;;;;;5066658;28;20052;-79
2022/03/08 11:51:33;;;;;;;7.53;5.45;;;8.40;99.90;;;;;;5054252;28;20052;-79
2022/03/08 11:54:22;;;;;;;5.80;5.07;;;8.40;99.90;;;;;;5070577;28;20040;-79
2022/03/08 11:56:51;;;;;;;6.10;5.50;;;8.40;99.90;;;;;;5066650;28;20048;-79
2022/03/08 11:59:17;;;;;;;5.57;3.93;;;8.60;99.90;;;;;;5064843;28;20123;-78
2022/03/08 12:01:43;;;;;;;8.63;5.55;;;8.70;99.90;;;;;;5066011;28;20155;-79
2022/03/08 12:04:16;;;;;;;7.40;5.53;;;8.70;99.90;;;;;;5043768;28;20414;-79
2022/03/08 12:06:49;;;;;;;6.35;4.53;;;8.70;99.90;;;;;;5071288;28;20513;-79
2022/03/08 12:09:18;;;;;;;13.63;6.13;;;8.60;99.90;;;;;;5066963;28;20036;-79
2022/03/08 12:11:56;;;;;;;10.93;6.00;;;8.80;99.90;;;;;;5069037;28;20351;-80
2022/03/08 12:14:31;;;;;;;5.75;4.10;;;8.70;99.40;;;;;;5044625;28;20491;-80
2022/03/08 12:17:08;;;;;;;6.68;4.50;;;8.70;99.90;;;;;;5064790;28;20056;-85
2022/03/08 12:19:40;;;;;;;8.00;5.30;;;8.80;99.90;;;;;;5067173;28;20076;-79
2022/03/08 12:22:13;;;;;;;6.00;3.97;;;9.00;99.90;;;;;;5071345;28;20051;-79
2022/03/08 12:24:41;;;;;;;4.78;4.03;;;9.00;99.90;;;;;;5062587;28;20049;-78
2022/03/08 12:27:09;;;;;;;5.10;4.03;;;9.00;99.60;;;;;;5061587;28;20040;-79
2022/03/08 12:29:50;;;;;;;6.43;4.85;;;8.90;99.70;;;;;;5070120;28;20486;-78
2022/03/08 12:32:32;;;;;;;6.70;4.15;;;9.10;99.90;;;;;;5062766;28;20060;-80
2022/03/08 12:35:04;;;;;;;6.72;4.30;;;9.20;98.80;;;;;;5074264;28;20082;-80
2022/03/08 12:37:36;;;;;;;4.47;3.92;;;9.20;98.80;;;;;;5089067;28;20040;-78
2022/03/08 12:40:20;;;;;;;8.73;4.20;;;9.30;98.50;;;;;;5061047;28;20085;-78
2022/03/08 12:42:50;;;;;;;6.43;3.88;;;9.30;99.30;;;;;;5067107;28;20048;-78